Aeroporto :
LOGIN :

Iscrizione | Disclaimer

   EN    FR    IT 

 










Sommario :    VFR   VFR Marginale   IFR   IFR Intensivo   IFR Molto Intensivo
Visibilità : 
Base nubi : 
>= 8 km
>= 3000ft
5 / 8 km
1000 / 3000 ft
1500m / 5 km
500 / 1000 ft
800 / 1500m
200 / 500 ft
< 800m
< 200 ft
Simboli :   Temporali  Nebbia  Neve Forte  Precipitazioni Forti  Vento > 20 kt
SIGMETs :   Varie  Temporali  Ghiacco  Turbolenza  Onda orograficha  Ceneri Vulcaniche







- Altitudine del aeroporto : 1411 ft
- Codice IATA : SZG


LOWS - Salzburg

ULTIMO METAR :
  • 190220Z AUTO 15010KT 9999 FEW220 BKN230 17/13 Q1014

METARs OBSOLETI :
  • 190150Z AUTO 14006KT 110V180 9999 FEW200 BKN240 17/13 Q1014
  • 190120Z AUTO 13003KT 110V180 9999 FEW220 SCT230 16/13 Q1015
  • 190050Z AUTO 18004KT 070V220 9999 FEW230 17/13 Q1015
  • 190020Z AUTO VRB02KT 9999 FEW060 18/13 Q1015
  • 182350Z AUTO 20005KT 150V270 9999 NSC 18/13 Q1015

TAF TAF LOWS
Valido dal 19 a 00 ore il 20 a 00 ore UTC


182315Z 1900/1924 15004KT CAVOK TX27/1914Z TN16/1903Z
BECMG 1907/1909 34005KT 9999 FEW060 BKN250
TEMPO 1912/1918 FEW050CB SCT060 BKN250
BECMG 1918/1920 15004KT
Nessun NOTAM noto per questo aeroporto.



MetMap, La meteo Aeronautica in un colpo d'occhio ! - Copyright ORBIFLY Dicembre 2007 - Disclaimer

ORBIFLY MET'MAP TEAM :

Programmazione e sviluppo : Alexandra Zaïnal
Concezione e sviluppo : Baudouin d'Aumeries
Co-Programmazione e sviluppo : Marc-Olivier Méhu
Supporto tecnico e logistico : Manuel Goepfert
Aiuto per la traduzione : Arnaldo La Scala

Contatto : metmap@orbifly.com




FONTI E CREDITI :

   NOAA